^^
Saratoga-Weather Station Historical Data
Daily Summary for September 8, 2020 Units:  Metric    English   Both
Daily Weekly Monthly Yearly Custom
  High: Low: Average:
Temperature: 20.3 °C 9.5 °C 14.1 °C
Dew Point: 11.5 °C 7.3 °C 9.2 °C
Humidity: 93% 43% 75%
Wind Speed: 17.7km/h 0km/h 2.7km/h
Wind Gust: 20.9km/h - -
Wind- - WSW
Pressure: 1012.9 hPa 1011.2 hPa -
Precipitation: 0.0 mm    
Historical Graphs
 
 
Tabular Data for September 8, 2020
Time Temperature Dew Point Pressure Wind Wind Speed Wind Gust Humidity Rainfall Rate (Hourly) solar
00:04 10.9 °C 8.5 °C 1011.5 hPa West 3.2 km/h 3.2 km/h 85% 0.0 mm 0 W/m2
00:09 10.8 °C 8.6 °C 1011.5 hPa Calm   1.6 km/h 86% 0.0 mm 0 W/m2
00:14 10.7 °C 8.5 °C 1011.5 hPa Calm   1.6 km/h 86% 0.0 mm 0 W/m2
00:19 10.7 °C 8.6 °C 1011.5 hPa Calm   1.6 km/h 87% 0.0 mm 0 W/m2
00:24 10.6 °C 8.5 °C 1011.9 hPa Calm   1.6 km/h 87% 0.0 mm 0 W/m2
00:29 10.4 °C 8.3 °C 1011.5 hPa Calm   1.6 km/h 87% 0.0 mm 0 W/m2
00:34 10.3 °C 8.2 °C 1011.9 hPa Calm     87% 0.0 mm 0 W/m2
00:39 10.3 °C 8.4 °C 1011.9 hPa Calm     88% 0.0 mm 0 W/m2
00:44 10.2 °C 8.3 °C 1011.5 hPa Calm   1.6 km/h 88% 0.0 mm 0 W/m2
00:49 10.1 °C 8.2 °C 1011.9 hPa Calm   1.6 km/h 88% 0.0 mm 0 W/m2
00:54 10 °C 8.3 °C 1011.9 hPa Calm     89% 0.0 mm 0 W/m2
00:59 10 °C 8.3 °C 1011.9 hPa Calm     89% 0.0 mm 0 W/m2
01:04 9.9 °C 8.2 °C 1011.9 hPa Calm     89% 0.0 mm 0 W/m2
01:09 9.8 °C 8.2 °C 1011.9 hPa Calm     90% 0.0 mm 0 W/m2
01:14 9.8 °C 8.2 °C 1011.9 hPa West 1.4 km/h 1.6 km/h 90% 0.0 mm 0 W/m2
01:19 9.8 °C 8.2 °C 1011.9 hPa Calm   1.6 km/h 90% 0.0 mm 0 W/m2
01:24 9.7 °C 8.1 °C 1011.9 hPa Calm     90% 0.0 mm 0 W/m2
01:29 9.7 °C 8.1 °C 1011.9 hPa Calm     90% 0.0 mm 0 W/m2
01:35 9.6 °C 8.2 °C 1011.9 hPa Calm     91% 0.0 mm 0 W/m2
01:40 9.7 °C 8.3 °C 1011.9 hPa Calm   1.6 km/h 91% 0.0 mm 0 W/m2
01:45 9.8 °C 8.4 °C 1011.9 hPa Calm   1.6 km/h 91% 0.0 mm 0 W/m2
01:50 9.9 °C 8.5 °C 1011.9 hPa NW 1.4 km/h 1.6 km/h 91% 0.0 mm 0 W/m2
01:55 10.2 °C 8.8 °C 1011.9 hPa Calm   3.2 km/h 91% 0.0 mm 0 W/m2
02:00 10.3 °C 8.7 °C 1011.9 hPa Calm   1.6 km/h 90% 0.0 mm 0 W/m2
02:05 10.4 °C 8.8 °C 1011.9 hPa Calm   1.6 km/h 90% 0.0 mm 0 W/m2
02:10 10.4 °C 8.8 °C 1011.9 hPa NNE 1.4 km/h 3.2 km/h 90% 0.0 mm 0 W/m2
02:15 10.5 °C 8.8 °C 1011.5 hPa Calm   1.6 km/h 89% 0.0 mm 0 W/m2
02:20 10.4 °C 8.7 °C 1011.5 hPa WNW 1.4 km/h 3.2 km/h 89% 0.0 mm 0 W/m2
02:25 10.4 °C 8.7 °C 1011.5 hPa Calm     89% 0.0 mm 0 W/m2
02:30 10.3 °C 8.6 °C 1011.5 hPa Calm   3.2 km/h 89% 0.0 mm 0 W/m2
02:35 10.2 °C 8.5 °C 1011.5 hPa WNW 1.4 km/h 1.6 km/h 89% 0.0 mm 0 W/m2
02:40 10 °C 8.4 °C 1011.5 hPa Calm     90% 0.0 mm 0 W/m2
02:45 9.9 °C 8.3 °C 1011.5 hPa Calm     90% 0.0 mm 0 W/m2
02:50 9.8 °C 8.2 °C 1011.5 hPa Calm     90% 0.0 mm 0 W/m2
02:55 9.8 °C 8.4 °C 1011.5 hPa Calm     91% 0.0 mm 0 W/m2
03:00 9.7 °C 8.3 °C 1011.5 hPa WNW 1.4 km/h 3.2 km/h 91% 0.0 mm 0 W/m2
03:05 9.7 °C 8.3 °C 1011.5 hPa Calm     91% 0.0 mm 0 W/m2
03:10 9.6 °C 8.2 °C 1011.5 hPa Calm     91% 0.0 mm 0 W/m2
03:15 9.6 °C 8.2 °C 1011.2 hPa Calm     91% 0.0 mm 0 W/m2
03:20 9.5 °C 8.3 °C 1011.2 hPa Calm     92% 0.0 mm 0 W/m2
03:25 9.5 °C 8.3 °C 1011.2 hPa Calm   1.6 km/h 92% 0.0 mm 0 W/m2
03:30 9.5 °C 8.3 °C 1011.2 hPa Calm     92% 0.0 mm 0 W/m2
03:35 9.6 °C 8.4 °C 1011.2 hPa Calm     92% 0.0 mm 0 W/m2
03:40 9.6 °C 8.4 °C 1011.2 hPa Calm   1.6 km/h 92% 0.0 mm 0 W/m2
03:45 9.5 °C 8.3 °C 1011.2 hPa Calm     92% 0.0 mm 0 W/m2
03:50 9.6 °C 8.4 °C 1011.2 hPa Calm     92% 0.0 mm 0 W/m2
03:55 9.5 °C 8.3 °C 1011.2 hPa Calm     92% 0.0 mm 0 W/m2
04:00 9.6 °C 8.4 °C 1011.2 hPa Calm     92% 0.0 mm 0 W/m2
04:05 9.6 °C 8.4 °C 1011.2 hPa Calm     92% 0.0 mm 0 W/m2
04:10 9.6 °C 8.4 °C 1011.2 hPa Calm     92% 0.0 mm 0 W/m2
04:15 9.5 °C 8.3 °C 1011.2 hPa Calm     92% 0.0 mm 0 W/m2
04:20 9.6 °C 8.5 °C 1011.2 hPa WNW 3.2 km/h 3.2 km/h 93% 0.0 mm 0 W/m2
04:25 9.6 °C 8.5 °C 1011.2 hPa Calm     93% 0.0 mm 0 W/m2
04:30 9.6 °C 8.5 °C 1011.2 hPa WNW 3.2 km/h 3.2 km/h 93% 0.0 mm 0 W/m2
04:35 9.7 °C 8.6 °C 1011.2 hPa WSW 4.7 km/h 4.8 km/h 93% 0.0 mm 0 W/m2
04:40 9.8 °C 8.6 °C 1011.2 hPa WSW 1.4 km/h 3.2 km/h 92% 0.0 mm 0 W/m2
04:45 9.9 °C 8.7 °C 1011.2 hPa Calm     92% 0.0 mm 0 W/m2
04:50 9.9 °C 8.7 °C 1011.2 hPa Calm   3.2 km/h 92% 0.0 mm 0 W/m2
04:55 9.9 °C 8.7 °C 1011.2 hPa ENE 1.4 km/h 3.2 km/h 92% 0.0 mm 0 W/m2
05:00 9.9 °C 8.7 °C 1011.2 hPa Calm     92% 0.0 mm 0 W/m2
05:05 9.9 °C 8.7 °C 1011.5 hPa Calm   3.2 km/h 92% 0.0 mm 0 W/m2
05:10 9.9 °C 8.7 °C 1011.2 hPa Calm     92% 0.0 mm 0 W/m2
05:15 9.9 °C 8.7 °C 1011.2 hPa Calm     92% 0.0 mm 0 W/m2
05:20 9.8 °C 8.6 °C 1011.5 hPa Calm     92% 0.0 mm 0 W/m2
05:25 9.9 °C 8.7 °C 1011.5 hPa Calm     92% 0.0 mm 0 W/m2
05:31 9.9 °C 8.7 °C 1011.5 hPa Calm     92% 0.0 mm 0 W/m2
05:36 9.9 °C 8.7 °C 1011.5 hPa Calm   1.6 km/h 92% 0.0 mm 0 W/m2
05:41 9.9 °C 8.7 °C 1011.5 hPa Calm     92% 0.0 mm 0 W/m2
05:46 9.9 °C 8.7 °C 1011.5 hPa Calm     92% 0.0 mm 0 W/m2
05:51 9.9 °C 8.7 °C 1011.9 hPa Calm     92% 0.0 mm 5 W/m2
05:56 10 °C 8.8 °C 1011.9 hPa Calm   3.2 km/h 92% 0.0 mm 7 W/m2
06:01 10 °C 8.8 °C 1011.9 hPa Calm     92% 0.0 mm 9 W/m2
06:06 10 °C 8.8 °C 1011.9 hPa Calm     92% 0.0 mm 11 W/m2
06:11 10.1 °C 8.9 °C 1011.9 hPa ENE 1.4 km/h 3.2 km/h 92% 0.0 mm 12 W/m2
06:16 10.1 °C 8.9 °C 1011.9 hPa Calm   1.6 km/h 92% 0.0 mm 16 W/m2
06:21 10.1 °C 8.9 °C 1011.9 hPa ENE 3.2 km/h 3.2 km/h 92% 0.0 mm 18 W/m2
06:26 10.2 °C 9 °C 1011.9 hPa Calm     92% 0.0 mm 21 W/m2
06:31 10.2 °C 9 °C 1011.9 hPa Calm     92% 0.0 mm 26 W/m2
06:36 10.3 °C 9.1 °C 1011.9 hPa Calm     92% 0.0 mm 35 W/m2
06:41 10.3 °C 9.1 °C 1011.9 hPa Calm     92% 0.0 mm 42 W/m2
06:46 10.4 °C 9.2 °C 1011.9 hPa Calm     92% 0.0 mm 47 W/m2
06:51 10.4 °C 9.2 °C 1011.9 hPa Calm     92% 0.0 mm 49 W/m2
06:56 10.5 °C 9.3 °C 1011.9 hPa Calm     92% 0.0 mm 40 W/m2
07:01 10.6 °C 9.4 °C 1011.9 hPa NNW 1.4 km/h 3.2 km/h 92% 0.0 mm 35 W/m2
07:06 10.6 °C 9.4 °C 1011.9 hPa Calm   1.6 km/h 92% 0.0 mm 37 W/m2
07:11 10.6 °C 9.4 °C 1011.9 hPa Calm   3.2 km/h 92% 0.0 mm 42 W/m2
07:16 10.6 °C 9.2 °C 1012.2 hPa Calm     91% 0.0 mm 47 W/m2
07:21 10.6 °C 9.4 °C 1012.2 hPa Calm     92% 0.0 mm 47 W/m2
07:26 10.6 °C 9.4 °C 1012.2 hPa Calm     92% 0.0 mm 63 W/m2
07:31 10.6 °C 9.4 °C 1012.2 hPa Calm     92% 0.0 mm 67 W/m2
07:37 10.7 °C 9.5 °C 1012.2 hPa Calm     92% 0.0 mm 102 W/m2
07:42 10.9 °C 9.7 °C 1012.5 hPa Calm     92% 0.0 mm 146 W/m2
07:47 11.2 °C 9.9 °C 1012.5 hPa Calm     92% 0.0 mm 220 W/m2
07:52 11.8 °C 10.2 °C 1012.5 hPa Calm   1.6 km/h 90% 0.0 mm 287 W/m2
07:57 12.3 °C 10.2 °C 1012.5 hPa North 1.4 km/h 1.6 km/h 87% 0.0 mm 206 W/m2
08:02 12.7 °C 10.1 °C 1012.5 hPa Calm     84% 0.0 mm 193 W/m2
08:07 12.8 °C 9.8 °C 1012.5 hPa Calm   1.6 km/h 82% 0.0 mm 188 W/m2
08:12 12.8 °C 9.8 °C 1012.5 hPa NNE 1.4 km/h 1.6 km/h 82% 0.0 mm 176 W/m2
08:17 12.8 °C 9.6 °C 1012.5 hPa Calm   3.2 km/h 81% 0.0 mm 192 W/m2
08:22 12.9 °C 9.7 °C 1012.5 hPa Calm   1.6 km/h 81% 0.0 mm 199 W/m2
08:27 13.3 °C 10.1 °C 1012.5 hPa North 4.7 km/h 6.4 km/h 81% 0.0 mm 399 W/m2
08:32 13.4 °C 9.6 °C 1012.5 hPa Calm   3.2 km/h 78% 0.0 mm 278 W/m2
08:37 13.7 °C 9.7 °C 1012.5 hPa NW 1.4 km/h 1.6 km/h 77% 0.0 mm 381 W/m2
08:42 14 °C 10 °C 1012.5 hPa NW 1.4 km/h 3.2 km/h 77% 0.0 mm 396 W/m2
08:47 14.3 °C 10.1 °C 1012.5 hPa WNW 1.4 km/h 4.8 km/h 76% 0.0 mm 408 W/m2
08:52 14.3 °C 10.1 °C 1012.5 hPa NNE 3.2 km/h 4.8 km/h 76% 0.0 mm 422 W/m2
08:57 14.6 °C 10 °C 1012.5 hPa SE 3.2 km/h 4.8 km/h 74% 0.0 mm 439 W/m2
09:02 14.8 °C 10.2 °C 1012.5 hPa NW 1.4 km/h 4.8 km/h 74% 0.0 mm 448 W/m2
09:07 14.9 °C 10.1 °C 1012.5 hPa NNW 3.2 km/h 4.8 km/h 73% 0.0 mm 462 W/m2
09:12 15.1 °C 10.1 °C 1012.5 hPa SSE 3.2 km/h 3.2 km/h 72% 0.0 mm 480 W/m2
09:17 15.3 °C 10.3 °C 1012.5 hPa ENE 3.2 km/h 6.4 km/h 72% 0.0 mm 492 W/m2
09:22 15.6 °C 10.6 °C 1012.5 hPa East 4.7 km/h 4.8 km/h 72% 0.0 mm 501 W/m2
09:27 15.9 °C 11.1 °C 1012.5 hPa ESE 3.2 km/h 3.2 km/h 73% 0.0 mm 517 W/m2
09:32 16.2 °C 10.7 °C 1012.9 hPa NE 3.2 km/h 6.4 km/h 70% 0.0 mm 527 W/m2
09:37 16.3 °C 10.6 °C 1012.9 hPa ESE 1.4 km/h 6.4 km/h 69% 0.0 mm 540 W/m2
09:42 16.3 °C 10.6 °C 1012.9 hPa Calm   3.2 km/h 69% 0.0 mm 552 W/m2
09:47 16.4 °C 10.7 °C 1012.5 hPa North 1.4 km/h 1.6 km/h 69% 0.0 mm 566 W/m2
09:52 16.4 °C 10.7 °C 1012.9 hPa SSE 1.4 km/h 3.2 km/h 69% 0.0 mm 578 W/m2
09:57 16.7 °C 10.8 °C 1012.5 hPa East 3.2 km/h 3.2 km/h 68% 0.0 mm 596 W/m2
10:02 16.8 °C 10.4 °C 1012.9 hPa NNW 3.2 km/h 3.2 km/h 66% 0.0 mm 606 W/m2
10:07 16.8 °C 10.6 °C 1012.9 hPa North 3.2 km/h 3.2 km/h 67% 0.0 mm 79 W/m2
10:12 16.7 °C 10.5 °C 1012.9 hPa North 1.4 km/h 3.2 km/h 67% 0.0 mm 149 W/m2
10:17 16.9 °C 10.7 °C 1012.5 hPa Calm   4.8 km/h 67% 0.0 mm 640 W/m2
10:30 17.5 °C 11.1 °C 1012.5 hPa East 3.2 km/h 3.2 km/h 66% 0.0 mm 670 W/m2
10:35 17.9 °C 10.8 °C 1012.5 hPa Calm   3.2 km/h 63% 0.0 mm 691 W/m2
10:40 18.2 °C 11.3 °C 1012.5 hPa ESE 1.4 km/h 4.8 km/h 64% 0.0 mm 708 W/m2
10:45 18.5 °C 11.1 °C 1012.5 hPa ESE 3.2 km/h 4.8 km/h 62% 0.0 mm 724 W/m2
10:50 18.7 °C 10.8 °C 1012.5 hPa East 4.7 km/h 8 km/h 60% 0.0 mm 749 W/m2
10:55 18.7 °C 10.8 °C 1012.5 hPa North 1.4 km/h 6.4 km/h 60% 0.0 mm 724 W/m2
11:00 18.6 °C 10.2 °C 1012.5 hPa ENE 6.4 km/h 6.4 km/h 58% 0.0 mm 802 W/m2
11:05 18.8 °C 9.8 °C 1012.5 hPa Calm   3.2 km/h 56% 0.0 mm 863 W/m2
11:10 19.1 °C 10.4 °C 1012.5 hPa NW 3.2 km/h 4.8 km/h 57% 0.0 mm 904 W/m2
11:16 19.4 °C 11.2 °C 1012.2 hPa ENE 4.7 km/h 6.4 km/h 59% 0.0 mm 861 W/m2
11:21 19.3 °C 10.8 °C 1012.5 hPa ENE 1.4 km/h 11.3 km/h 58% 0.0 mm 306 W/m2
11:26 18.9 °C 10.5 °C 1012.5 hPa Calm   4.8 km/h 58% 0.0 mm 302 W/m2
11:31 18.7 °C 10.5 °C 1012.5 hPa NNW 1.4 km/h 6.4 km/h 59% 0.0 mm 338 W/m2
11:36 18.4 °C 10 °C 1012.5 hPa North 1.4 km/h 8 km/h 58% 0.0 mm 281 W/m2
11:41 18.4 °C 10.2 °C 1012.5 hPa NW 1.4 km/h 12.9 km/h 59% 0.0 mm 267 W/m2
11:46 18.1 °C 10 °C 1012.9 hPa NW 4.7 km/h 11.3 km/h 59% 0.0 mm 134 W/m2
11:51 17.2 °C 10.1 °C 1012.5 hPa WSW 11.1 km/h 19.3 km/h 63% 0.0 mm 113 W/m2
11:56 15.9 °C 9.6 °C 1012.9 hPa West 14.3 km/h 19.3 km/h 66% 0.0 mm 104 W/m2
12:01 15.2 °C 9.8 °C 1012.9 hPa WSW 7.9 km/h 12.9 km/h 70% 0.0 mm 105 W/m2
12:06 14.5 °C 9.7 °C 1012.9 hPa WNW 7.9 km/h 12.9 km/h 73% 0.0 mm 113 W/m2
12:11 14.1 °C 9.3 °C 1012.9 hPa SW 6.4 km/h 9.7 km/h 73% 0.0 mm 114 W/m2
12:16 13.9 °C 9.1 °C 1012.9 hPa WNW 9.7 km/h 9.7 km/h 73% 0.0 mm 118 W/m2
12:21 13.9 °C 9.3 °C 1012.9 hPa West 6.4 km/h 11.3 km/h 74% 0.0 mm 127 W/m2
12:26 14.1 °C 9.7 °C 1012.9 hPa WNW 11.1 km/h 19.3 km/h 75% 0.0 mm 151 W/m2
12:31 14.3 °C 8.9 °C 1012.9 hPa WSW 4.7 km/h 6.4 km/h 70% 0.0 mm 195 W/m2
12:36 14.4 °C 9 °C 1012.9 hPa WNW 4.7 km/h 11.3 km/h 70% 0.0 mm 239 W/m2
12:41 14.7 °C 9.1 °C 1012.9 hPa WNW 3.2 km/h 6.4 km/h 69% 0.0 mm 272 W/m2
12:46 15 °C 9.1 °C 1012.9 hPa Calm   1.6 km/h 68% 0.0 mm 295 W/m2
12:51 15.3 °C 9.6 °C 1012.9 hPa West 4.7 km/h 6.4 km/h 69% 0.0 mm 316 W/m2
12:56 15.6 °C 9.5 °C 1012.9 hPa WNW 4.7 km/h 4.8 km/h 67% 0.0 mm 330 W/m2
13:01 15.8 °C 9.2 °C 1012.9 hPa West 3.2 km/h 4.8 km/h 65% 0.0 mm 327 W/m2
13:06 16.1 °C 10.4 °C 1012.9 hPa West 11.1 km/h 12.9 km/h 69% 0.0 mm 302 W/m2
13:11 15.9 °C 11.1 °C 1012.9 hPa West 6.4 km/h 6.4 km/h 73% 0.0 mm 362 W/m2
13:16 15.7 °C 10.9 °C 1012.9 hPa West 6.4 km/h 12.9 km/h 73% 0.0 mm 425 W/m2
13:21 15.8 °C 10.8 °C 1012.5 hPa WNW 4.7 km/h 4.8 km/h 72% 0.0 mm 575 W/m2
13:26 16.2 °C 11.1 °C 1012.9 hPa WNW 4.7 km/h 9.7 km/h 72% 0.0 mm 341 W/m2
13:31 16.4 °C 10.9 °C 1012.5 hPa WNW 3.2 km/h 9.7 km/h 70% 0.0 mm 327 W/m2
13:36 16.5 °C 11 °C 1012.5 hPa WSW 6.4 km/h 11.3 km/h 70% 0.0 mm 309 W/m2
13:41 16.6 °C 11.5 °C 1012.9 hPa WNW 3.2 km/h 4.8 km/h 72% 0.0 mm 341 W/m2
13:46 16.8 °C 10.6 °C 1012.5 hPa WNW 1.4 km/h 6.4 km/h 67% 0.0 mm 429 W/m2
13:51 17.2 °C 10.8 °C 1012.5 hPa NW 4.7 km/h 8 km/h 66% 0.0 mm 858 W/m2
13:56 17.8 °C 10.4 °C 1012.5 hPa West 4.7 km/h 8 km/h 62% 0.0 mm 895 W/m2
14:01 18.2 °C 10.8 °C 1012.5 hPa WNW 4.7 km/h 9.7 km/h 62% 0.0 mm 691 W/m2
14:06 18.4 °C 10.5 °C 1012.5 hPa WSW 7.9 km/h 11.3 km/h 60% 0.0 mm 485 W/m2
14:11 18.5 °C 10.8 °C 1012.5 hPa WSW 4.7 km/h 6.4 km/h 61% 0.0 mm 448 W/m2
14:16 18.5 °C 9.8 °C 1012.5 hPa WSW 11.1 km/h 11.3 km/h 57% 0.0 mm 582 W/m2
14:21 18.4 °C 10 °C 1012.5 hPa North 4.7 km/h 14.5 km/h 58% 0.0 mm 496 W/m2
14:26 18.6 °C 8.8 °C 1012.5 hPa NNW 1.4 km/h 6.4 km/h 53% 0.0 mm 895 W/m2
14:32 18.9 °C 9.4 °C 1012.5 hPa NNW 6.4 km/h 16.1 km/h 54% 0.0 mm 1078 W/m2
14:37 19.2 °C 9.7 °C 1012.5 hPa NNW 9.7 km/h 11.3 km/h 54% 0.0 mm 1044 W/m2
14:42 19.1 °C 9.3 °C 1012.5 hPa WSW 7.9 km/h 17.7 km/h 53% 0.0 mm 1113 W/m2
14:47 19 °C 9.8 °C 1012.5 hPa WNW 17.7 km/h 19.3 km/h 55% 0.0 mm 1155 W/m2
14:52 18.8 °C 9.8 °C 1012.5 hPa West 6.4 km/h 20.9 km/h 56% 0.0 mm 677 W/m2
14:57 18.4 °C 9.2 °C 1012.5 hPa NNW 6.4 km/h 14.5 km/h 55% 0.0 mm 355 W/m2
15:02 18.2 °C 9.5 °C 1012.5 hPa NNW 4.7 km/h 8 km/h 57% 0.0 mm 406 W/m2
15:07 18.2 °C 9.5 °C 1012.5 hPa NW 4.7 km/h 9.7 km/h 57% 0.0 mm 425 W/m2
15:12 18.3 °C 9.6 °C 1012.5 hPa NW 3.2 km/h 9.7 km/h 57% 0.0 mm 524 W/m2
15:17 18.7 °C 9.5 °C 1012.2 hPa WNW 6.4 km/h 9.7 km/h 55% 0.0 mm 561 W/m2
15:22 19.1 °C 8.4 °C 1012.2 hPa NNE 3.2 km/h 4.8 km/h 50% 0.0 mm 958 W/m2
15:27 19.4 °C 7.8 °C 1012.2 hPa NW 3.2 km/h 9.7 km/h 47% 0.0 mm 459 W/m2
15:32 19.5 °C 7.9 °C 1012.2 hPa West 4.7 km/h 8 km/h 47% 0.0 mm 545 W/m2
15:37 19.6 °C 8 °C 1012.2 hPa WSW 4.7 km/h 12.9 km/h 47% 0.0 mm 524 W/m2
15:42 19.6 °C 7.3 °C 1012.5 hPa West 4.7 km/h 6.4 km/h 45% 0.0 mm 454 W/m2
15:47 19.4 °C 8.1 °C 1012.2 hPa West 1.4 km/h 12.9 km/h 48% 0.0 mm 397 W/m2
15:52 19.5 °C 7.9 °C 1012.2 hPa West 6.4 km/h 14.5 km/h 47% 0.0 mm 408 W/m2
15:57 19.3 °C 7.4 °C 1012.2 hPa NW 4.7 km/h 11.3 km/h 46% 0.0 mm 392 W/m2
16:02 19.3 °C 7.4 °C 1012.2 hPa NNW 3.2 km/h 4.8 km/h 46% 0.0 mm 494 W/m2
16:07 19.5 °C 7.9 °C 1012.2 hPa West 4.7 km/h 11.3 km/h 47% 0.0 mm 410 W/m2
16:12 19.7 °C 7.8 °C 1012.2 hPa WNW 6.4 km/h 6.4 km/h 46% 0.0 mm 487 W/m2
16:17 19.9 °C 7.3 °C 1012.2 hPa North 3.2 km/h 8 km/h 44% 0.0 mm 406 W/m2
16:22 20.1 °C 7.8 °C 1012.2 hPa WNW 6.4 km/h 17.7 km/h 45% 0.0 mm 780 W/m2
16:27 19.9 °C 7.6 °C 1012.2 hPa NW 1.4 km/h 4.8 km/h 45% 0.0 mm 315 W/m2
16:32 19.8 °C 7.5 °C 1012.2 hPa WNW 1.4 km/h 14.5 km/h 45% 0.0 mm 348 W/m2
16:37 19.6 °C 8 °C 1012.2 hPa NNW 7.9 km/h 14.5 km/h 47% 0.0 mm 213 W/m2
16:42 19.4 °C 7.5 °C 1012.2 hPa WNW 1.4 km/h 6.4 km/h 46% 0.0 mm 211 W/m2
16:47 19.3 °C 7.4 °C 1011.9 hPa Calm   3.2 km/h 46% 0.0 mm 301 W/m2
16:53 19.6 °C 8.3 °C 1011.9 hPa WSW 4.7 km/h 11.3 km/h 48% 0.0 mm 399 W/m2
16:58 19.9 °C 9.8 °C 1011.9 hPa WNW 9.7 km/h 17.7 km/h 52% 0.0 mm 766 W/m2
17:03 20 °C 9.6 °C 1011.9 hPa West 14.3 km/h 20.9 km/h 51% 0.0 mm 786 W/m2
17:08 19.8 °C 8.8 °C 1011.9 hPa NW 4.7 km/h 14.5 km/h 49% 0.0 mm 703 W/m2
17:13 19.8 °C 8.8 °C 1011.9 hPa WNW 3.2 km/h 14.5 km/h 49% 0.0 mm 733 W/m2
17:18 20.2 °C 8.2 °C 1011.9 hPa NW 6.4 km/h 14.5 km/h 46% 0.0 mm 631 W/m2
17:23 20.1 °C 8.1 °C 1012.2 hPa WNW 4.7 km/h 16.1 km/h 46% 0.0 mm 608 W/m2
17:28 20.1 °C 8.1 °C 1011.9 hPa West 11.1 km/h 12.9 km/h 46% 0.0 mm 592 W/m2
17:33 20.1 °C 8.1 °C 1011.9 hPa West 14.3 km/h 16.1 km/h 46% 0.0 mm 584 W/m2
17:38 20 °C 7.7 °C 1011.9 hPa WNW 9.7 km/h 12.9 km/h 45% 0.0 mm 571 W/m2
17:43 20 °C 8.3 °C 1011.9 hPa West 11.1 km/h 11.3 km/h 47% 0.0 mm 568 W/m2
17:48 20.2 °C 8.2 °C 1011.9 hPa West 4.7 km/h 9.7 km/h 46% 0.0 mm 559 W/m2
17:53 20.3 °C 7.3 °C 1011.9 hPa WNW 4.7 km/h 11.3 km/h 43% 0.0 mm 540 W/m2
Juneau County Weather
Compliments of Weather Underground - 4 mb